Time;durP1;ratioP1;P1;durP2;ratioP2;P2;SDS_P1;SDS_P2;PMS_P1;PMS_P2;Temp;Humidity;BMP_temperature;BMP_pressure;BME280_temperature;BME280_humidity;BME280_pressure;Samples;Min_cycle;Max_cycle;Signal;HPM_P1;HPM_P2
2021/01/08 00:00:49;;;;;;;42.97;18.98;;;-0.80;99.90;;;;;;5001895;28;20099;-67
2021/01/08 00:03:16;;;;;;;47.70;17.33;;;-0.70;99.90;;;;;;5011411;28;20043;-67
2021/01/08 00:05:43;;;;;;;36.90;14.10;;;-0.70;99.90;;;;;;5027208;28;20049;-67
2021/01/08 00:08:09;;;;;;;35.08;14.55;;;-0.70;99.90;;;;;;5026595;28;20480;-67
2021/01/08 00:10:35;;;;;;;46.67;20.42;;;-0.70;99.90;;;;;;5029218;28;20459;-67
2021/01/08 00:13:02;;;;;;;33.15;12.52;;;-0.60;99.90;;;;;;5027392;28;20396;-67
2021/01/08 00:15:29;;;;;;;48.00;19.23;;;-0.60;99.90;;;;;;5025381;28;20038;-66
2021/01/08 00:17:55;;;;;;;49.45;20.95;;;-0.60;99.90;;;;;;5029227;28;20587;-67
2021/01/08 00:20:22;;;;;;;58.67;22.55;;;-0.60;99.90;;;;;;5017790;28;20114;-67
2021/01/08 00:22:49;;;;;;;49.75;18.67;;;-0.60;99.90;;;;;;5031179;28;20053;-66
2021/01/08 00:25:16;;;;;;;47.25;20.83;;;-0.60;99.90;;;;;;5029660;28;20045;-66
2021/01/08 00:27:42;;;;;;;48.25;20.35;;;-0.50;99.90;;;;;;5031230;28;20500;-66
2021/01/08 00:30:11;;;;;;;46.55;18.23;;;-0.50;99.90;;;;;;5034256;28;20046;-66
2021/01/08 00:32:38;;;;;;;37.53;15.70;;;-0.50;99.90;;;;;;5033723;28;20056;-66
2021/01/08 00:35:05;;;;;;;37.25;16.52;;;-0.40;99.90;;;;;;5031667;28;20037;-66
2021/01/08 00:37:34;;;;;;;50.63;19.42;;;-0.40;99.90;;;;;;5029411;28;20056;-66
2021/01/08 00:40:00;;;;;;;39.67;15.73;;;-0.40;99.90;;;;;;5026322;28;20045;-66
2021/01/08 00:42:27;;;;;;;48.83;17.92;;;-0.40;99.90;;;;;;5032353;28;20496;-67
2021/01/08 00:44:53;;;;;;;34.08;13.90;;;-0.30;99.90;;;;;;5031315;28;20049;-66
2021/01/08 00:47:20;;;;;;;42.65;16.30;;;-0.30;99.90;;;;;;5027565;28;20049;-66
2021/01/08 00:49:47;;;;;;;44.83;17.35;;;-0.30;99.90;;;;;;5026731;28;20038;-66
2021/01/08 00:52:13;;;;;;;43.30;16.90;;;-0.30;99.90;;;;;;5029511;28;20049;-66
2021/01/08 00:54:43;;;;;;;45.25;18.15;;;-0.20;99.90;;;;;;5030543;28;20053;-67
2021/01/08 00:57:34;;;;;;;51.70;19.98;;;-0.20;99.90;;;;;;5030391;28;20141;-66
2021/01/08 01:00:02;;;;;;;46.67;15.60;;;-0.10;99.90;;;;;;5024067;28;20504;-67
2021/01/08 01:02:28;;;;;;;44.15;17.50;;;-0.10;99.90;;;;;;5031407;28;20107;-66
2021/01/08 01:04:55;;;;;;;55.47;20.27;;;-0.10;99.90;;;;;;5029595;28;20726;-66
2021/01/08 01:07:22;;;;;;;47.88;20.25;;;0.00;99.90;;;;;;5032386;28;20046;-66
2021/01/08 01:09:48;;;;;;;54.92;22.38;;;0.00;99.90;;;;;;5031687;28;20045;-66
2021/01/08 01:12:14;;;;;;;49.13;20.40;;;0.00;99.90;;;;;;5033280;28;20069;-67
2021/01/08 01:14:41;;;;;;;39.80;18.48;;;0.00;99.90;;;;;;5031048;28;20041;-66
2021/01/08 01:17:08;;;;;;;53.08;22.25;;;0.00;99.90;;;;;;5009388;28;20037;-66
2021/01/08 01:19:35;;;;;;;52.95;22.42;;;0.10;99.90;;;;;;5021507;28;20057;-66
2021/01/08 01:22:01;;;;;;;44.70;19.00;;;0.10;99.90;;;;;;5030707;28;20131;-66
2021/01/08 01:24:27;;;;;;;57.65;20.60;;;0.10;99.90;;;;;;5031538;28;20049;-66
2021/01/08 01:26:56;;;;;;;60.72;21.25;;;0.20;99.90;;;;;;5032412;28;20048;-66
2021/01/08 01:29:22;;;;;;;56.50;22.55;;;0.20;99.90;;;;;;5033479;28;20049;-67
2021/01/08 01:31:49;;;;;;;47.22;19.13;;;0.10;99.90;;;;;;5023994;28;20049;-67
2021/01/08 01:34:16;;;;;;;50.50;20.70;;;0.20;99.90;;;;;;5021499;28;20038;-66
2021/01/08 01:36:45;;;;;;;60.00;22.88;;;0.10;99.90;;;;;;5025556;28;20034;-66
2021/01/08 01:39:13;;;;;;;41.50;18.60;;;0.20;99.90;;;;;;5032572;28;20052;-67
2021/01/08 01:41:40;;;;;;;53.05;20.75;;;0.20;99.90;;;;;;5030751;28;20049;-67
2021/01/08 01:44:07;;;;;;;44.42;17.83;;;0.20;99.90;;;;;;5028162;28;20072;-67
2021/01/08 01:46:34;;;;;;;54.25;21.10;;;0.30;99.90;;;;;;5029920;28;20095;-67
2021/01/08 01:49:01;;;;;;;50.33;18.85;;;0.30;99.90;;;;;;5027502;28;20042;-66
2021/01/08 01:51:28;;;;;;;35.42;16.48;;;0.20;99.90;;;;;;5028017;28;20037;-66
2021/01/08 01:53:55;;;;;;;59.70;22.95;;;0.20;99.90;;;;;;5020490;28;20038;-66
2021/01/08 01:56:21;;;;;;;52.38;20.83;;;0.30;99.90;;;;;;5025857;28;20048;-66
2021/01/08 01:58:48;;;;;;;59.20;23.48;;;0.30;99.90;;;;;;5032120;28;20052;-66
2021/01/08 02:01:15;;;;;;;58.78;22.75;;;0.30;99.90;;;;;;5026481;28;20096;-66
2021/01/08 02:03:49;;;;;;;63.10;23.45;;;0.30;99.90;;;;;;5024809;28;20678;-66
2021/01/08 02:06:20;;;;;;;62.95;23.42;;;0.40;99.90;;;;;;5031823;28;20048;-66
2021/01/08 02:09:01;;;;;;;57.25;21.17;;;0.30;99.90;;;;;;5024591;28;20042;-66
2021/01/08 02:11:30;;;;;;;36.95;14.85;;;0.40;99.90;;;;;;5035595;28;20810;-66
2021/01/08 02:14:08;;;;;;;56.08;22.08;;;0.40;99.90;;;;;;5027329;28;20045;-66
2021/01/08 02:16:37;;;;;;;39.83;16.77;;;0.40;99.90;;;;;;5026296;28;20033;-67
2021/01/08 02:19:09;;;;;;;54.38;22.08;;;0.40;99.90;;;;;;5020515;28;20144;-67
2021/01/08 02:21:55;;;;;;;41.22;19.27;;;0.40;99.90;;;;;;5025143;28;20376;-67
2021/01/08 02:24:38;;;;;;;45.80;20.23;;;0.50;99.90;;;;;;5030542;28;20497;-67
2021/01/08 02:27:05;;;;;;;59.08;22.48;;;0.50;99.90;;;;;;5029677;28;20099;-66
2021/01/08 02:29:33;;;;;;;46.40;20.13;;;0.50;99.90;;;;;;5028983;28;20046;-67
2021/01/08 02:32:00;;;;;;;56.58;21.45;;;0.50;99.90;;;;;;5029749;28;20037;-67
2021/01/08 02:34:28;;;;;;;47.42;21.38;;;0.50;99.90;;;;;;5031988;28;20041;-66
2021/01/08 02:36:55;;;;;;;34.13;16.45;;;0.50;99.90;;;;;;5030776;28;20049;-66
2021/01/08 02:39:22;;;;;;;50.30;20.40;;;0.50;99.90;;;;;;5027750;28;21043;-66
2021/01/08 02:41:54;;;;;;;54.17;22.50;;;0.50;99.90;;;;;;5025028;28;20465;-66
2021/01/08 02:44:22;;;;;;;39.33;16.67;;;0.50;99.90;;;;;;5029360;28;20132;-66
2021/01/08 02:46:49;;;;;;;49.63;19.83;;;0.60;99.90;;;;;;5028517;28;20295;-66
2021/01/08 02:49:15;;;;;;;47.85;18.33;;;0.60;99.90;;;;;;5025925;28;20034;-66
2021/01/08 02:51:42;;;;;;;43.33;19.48;;;0.60;99.90;;;;;;5026805;28;20046;-66
2021/01/08 02:54:11;;;;;;;50.40;20.15;;;0.60;99.90;;;;;;5030484;28;20043;-66
2021/01/08 02:56:46;;;;;;;46.30;19.52;;;0.60;99.90;;;;;;5030213;28;20439;-66
2021/01/08 02:59:14;;;;;;;42.67;16.45;;;0.50;99.90;;;;;;5029212;28;20633;-66
2021/01/08 03:01:42;;;;;;;45.95;19.77;;;0.60;99.90;;;;;;5031693;28;20403;-66
2021/01/08 03:04:10;;;;;;;39.20;17.35;;;0.50;99.90;;;;;;5030730;28;20049;-67
2021/01/08 03:06:40;;;;;;;48.65;17.35;;;0.60;99.90;;;;;;5030682;28;20041;-67
2021/01/08 03:09:07;;;;;;;47.25;18.40;;;0.60;99.90;;;;;;5029582;28;20052;-66
2021/01/08 03:11:33;;;;;;;45.88;21.05;;;0.60;99.90;;;;;;5027330;28;20045;-67
2021/01/08 03:14:00;;;;;;;43.58;20.52;;;0.70;99.90;;;;;;5029249;28;20045;-67
2021/01/08 03:16:27;;;;;;;46.45;19.08;;;0.70;99.90;;;;;;5030429;28;20042;-66
2021/01/08 03:18:54;;;;;;;49.40;19.38;;;0.70;99.90;;;;;;5029956;28;20081;-67
2021/01/08 03:21:21;;;;;;;45.10;18.42;;;0.70;99.90;;;;;;5029916;28;20045;-66
2021/01/08 03:23:48;;;;;;;37.45;16.83;;;0.70;99.90;;;;;;5022768;28;20045;-66
2021/01/08 03:26:15;;;;;;;36.45;15.43;;;0.70;99.90;;;;;;5029181;28;20056;-67
2021/01/08 03:28:41;;;;;;;41.58;16.85;;;0.70;99.90;;;;;;5029401;28;20037;-67
2021/01/08 03:31:08;;;;;;;43.38;17.70;;;0.70;99.90;;;;;;5027245;28;20034;-67
2021/01/08 03:33:34;;;;;;;43.50;18.48;;;0.70;99.90;;;;;;5028398;28;20138;-67
2021/01/08 03:36:01;;;;;;;40.47;16.85;;;0.80;99.90;;;;;;5020799;28;20049;-67
2021/01/08 03:38:27;;;;;;;40.97;17.40;;;0.80;99.90;;;;;;5021341;28;20037;-66
2021/01/08 03:40:54;;;;;;;34.72;15.60;;;0.80;99.90;;;;;;5029116;28;20059;-66
2021/01/08 03:43:21;;;;;;;42.80;17.98;;;0.80;99.90;;;;;;5022490;28;20113;-66
2021/01/08 03:45:47;;;;;;;34.83;12.20;;;0.70;99.90;;;;;;5022293;28;20496;-66
2021/01/08 03:48:14;;;;;;;43.95;18.23;;;0.80;99.90;;;;;;5030126;28;20487;-67
2021/01/08 03:50:40;;;;;;;38.85;15.85;;;0.70;99.90;;;;;;5026159;28;20091;-67
2021/01/08 03:53:07;;;;;;;43.75;16.77;;;0.80;99.90;;;;;;5017391;28;20045;-66
2021/01/08 03:55:34;;;;;;;40.00;17.73;;;0.80;99.90;;;;;;5026439;28;20497;-67
2021/01/08 03:58:01;;;;;;;40.63;15.63;;;0.80;99.90;;;;;;5029327;28;20044;-66
2021/01/08 04:00:27;;;;;;;40.92;16.05;;;0.90;99.90;;;;;;5027702;28;20075;-66
2021/01/08 04:02:54;;;;;;;40.97;16.05;;;0.90;99.90;;;;;;5028696;28;20052;-67
2021/01/08 04:05:21;;;;;;;28.73;14.45;;;0.90;99.90;;;;;;5023724;28;20044;-67
2021/01/08 04:07:48;;;;;;;35.03;14.70;;;0.90;99.90;;;;;;5018933;28;20045;-67
2021/01/08 04:10:14;;;;;;;40.22;17.15;;;0.90;99.90;;;;;;5028413;28;20073;-66
2021/01/08 04:12:41;;;;;;;28.50;11.63;;;0.90;99.90;;;;;;5026102;28;20049;-66
2021/01/08 04:15:09;;;;;;;35.45;15.45;;;0.90;99.90;;;;;;5027971;28;20042;-66
2021/01/08 04:17:35;;;;;;;21.25;8.85;;;0.90;99.90;;;;;;5028823;28;20487;-66
2021/01/08 04:20:02;;;;;;;24.92;12.38;;;0.90;99.90;;;;;;5027212;28;20481;-66
2021/01/08 04:22:29;;;;;;;37.80;15.40;;;0.90;99.90;;;;;;5029331;28;20580;-66
2021/01/08 04:24:55;;;;;;;29.58;12.68;;;0.90;99.90;;;;;;5015670;28;20125;-67
2021/01/08 04:27:22;;;;;;;36.20;15.63;;;0.90;99.90;;;;;;5029877;28;20108;-67
2021/01/08 04:29:48;;;;;;;33.30;13.65;;;1.00;99.90;;;;;;5026584;28;20472;-66
2021/01/08 04:32:14;;;;;;;37.55;16.92;;;1.00;99.90;;;;;;5028651;28;20049;-66
2021/01/08 04:34:41;;;;;;;39.38;16.23;;;1.00;99.90;;;;;;5025621;28;20038;-66
2021/01/08 04:37:08;;;;;;;43.13;18.05;;;1.00;99.90;;;;;;5026680;28;20560;-66
2021/01/08 04:39:35;;;;;;;35.78;15.20;;;1.00;99.90;;;;;;5018378;28;20057;-66
2021/01/08 04:42:02;;;;;;;32.90;15.93;;;1.00;99.90;;;;;;5023793;28;20443;-66
2021/01/08 04:44:30;;;;;;;36.72;15.93;;;1.00;99.90;;;;;;5028872;28;20049;-66
2021/01/08 04:46:57;;;;;;;33.33;13.63;;;1.10;99.90;;;;;;5027555;28;20045;-66
2021/01/08 04:49:24;;;;;;;30.50;12.90;;;1.00;99.90;;;;;;5026811;28;20052;-66
2021/01/08 04:51:52;;;;;;;36.38;15.75;;;1.00;99.90;;;;;;5012065;28;20050;-67
2021/01/08 04:54:19;;;;;;;31.35;14.00;;;1.00;99.90;;;;;;5027319;28;20033;-67
2021/01/08 04:56:48;;;;;;;39.22;14.95;;;1.00;99.90;;;;;;5030748;28;20546;-66
2021/01/08 04:59:15;;;;;;;29.90;12.80;;;1.00;99.90;;;;;;5030832;28;20033;-66
2021/01/08 05:01:41;;;;;;;36.15;15.63;;;1.10;99.90;;;;;;5019808;28;20046;-66
2021/01/08 05:04:09;;;;;;;35.72;15.70;;;1.00;99.90;;;;;;5027275;28;20049;-66
2021/01/08 05:06:36;;;;;;;32.45;15.00;;;1.00;99.90;;;;;;5029892;28;20556;-66
2021/01/08 05:09:03;;;;;;;29.95;12.73;;;1.10;99.90;;;;;;5032105;28;20575;-66
2021/01/08 05:11:30;;;;;;;27.92;12.15;;;1.00;99.90;;;;;;5030139;28;20044;-66
2021/01/08 05:13:59;;;;;;;24.35;10.75;;;1.00;99.90;;;;;;5027550;28;20061;-66
2021/01/08 05:16:31;;;;;;;45.35;22.67;;;1.10;99.90;;;;;;5032841;28;20096;-66
2021/01/08 05:19:00;;;;;;;47.42;22.90;;;1.10;99.90;;;;;;5028307;28;20059;-66
2021/01/08 05:21:28;;;;;;;41.78;21.98;;;1.10;99.90;;;;;;5028279;28;20041;-66
2021/01/08 05:23:56;;;;;;;36.03;16.65;;;1.10;99.90;;;;;;5020459;28;20057;-67
2021/01/08 05:26:24;;;;;;;39.85;16.67;;;1.10;99.90;;;;;;5031953;28;20515;-67
2021/01/08 05:28:55;;;;;;;39.70;15.63;;;1.10;99.90;;;;;;5013781;28;20100;-66
2021/01/08 05:31:24;;;;;;;49.78;17.08;;;1.10;99.90;;;;;;5029522;28;20038;-66
2021/01/08 05:33:52;;;;;;;49.58;17.40;;;1.10;99.90;;;;;;5025629;28;20041;-66
2021/01/08 05:36:19;;;;;;;38.70;16.58;;;1.10;99.90;;;;;;5030101;28;20057;-66
2021/01/08 05:38:51;;;;;;;42.78;16.45;;;1.20;99.90;;;;;;5029914;28;20042;-66
2021/01/08 05:41:21;;;;;;;35.33;14.88;;;1.20;99.90;;;;;;5030642;28;20034;-66
2021/01/08 05:43:48;;;;;;;32.20;14.02;;;1.20;99.90;;;;;;5030121;28;20045;-66
2021/01/08 05:46:26;;;;;;;38.28;15.63;;;1.10;99.90;;;;;;5038714;28;20053;-66
2021/01/08 05:48:57;;;;;;;34.20;14.32;;;1.20;99.90;;;;;;5033163;28;20115;-66
2021/01/08 05:51:30;;;;;;;33.50;14.00;;;1.20;99.90;;;;;;5025719;28;20108;-66
2021/01/08 05:54:01;;;;;;;34.85;15.10;;;1.20;99.90;;;;;;5021872;28;20038;-66
2021/01/08 05:56:31;;;;;;;33.28;13.95;;;1.20;99.90;;;;;;5029865;28;20041;-66
2021/01/08 05:58:59;;;;;;;40.95;15.15;;;1.20;99.90;;;;;;5030454;28;20041;-67
2021/01/08 06:01:28;;;;;;;36.40;15.50;;;1.20;99.90;;;;;;5024594;28;20042;-66
2021/01/08 06:03:55;;;;;;;35.10;15.27;;;1.20;99.90;;;;;;5027847;28;20056;-67
2021/01/08 06:06:24;;;;;;;32.88;14.65;;;1.20;99.90;;;;;;5013140;28;20381;-66
2021/01/08 06:08:52;;;;;;;38.53;15.60;;;1.20;99.90;;;;;;5031962;28;20394;-66
2021/01/08 06:11:28;;;;;;;39.50;15.00;;;1.20;99.90;;;;;;5032169;28;20072;-67
2021/01/08 06:14:00;;;;;;;37.25;14.93;;;1.10;99.90;;;;;;5028088;28;20069;-66
2021/01/08 06:16:38;;;;;;;37.70;15.45;;;1.20;99.90;;;;;;5028797;28;20050;-67
2021/01/08 06:19:06;;;;;;;35.25;14.75;;;1.10;99.90;;;;;;5027043;28;20057;-66
2021/01/08 06:21:44;;;;;;;42.50;16.70;;;1.10;99.90;;;;;;5024983;28;20045;-67
2021/01/08 06:24:29;;;;;;;40.10;17.83;;;1.10;99.90;;;;;;5027741;28;20069;-66
2021/01/08 06:26:56;;;;;;;39.30;18.98;;;1.00;99.90;;;;;;5032809;28;20053;-66
2021/01/08 06:29:24;;;;;;;52.50;25.35;;;1.00;99.90;;;;;;5030085;28;20041;-66
2021/01/08 06:31:56;;;;;;;64.03;29.02;;;1.10;99.90;;;;;;5025469;28;20081;-67
2021/01/08 06:34:25;;;;;;;40.25;17.80;;;1.10;99.90;;;;;;5019197;28;20053;-66
2021/01/08 06:37:08;;;;;;;36.20;15.13;;;1.10;99.90;;;;;;5026240;28;20046;-66
2021/01/08 06:39:41;;;;;;;38.22;15.15;;;1.20;99.90;;;;;;5023714;28;20489;-67
2021/01/08 06:42:08;;;;;;;32.03;14.82;;;1.20;99.90;;;;;;5030439;28;20049;-66
2021/01/08 06:44:36;;;;;;;37.13;14.63;;;1.10;99.90;;;;;;5029638;28;20053;-67
2021/01/08 06:47:05;;;;;;;35.65;14.82;;;1.10;99.90;;;;;;5029239;28;20041;-66
2021/01/08 06:49:36;;;;;;;37.80;14.98;;;1.20;99.90;;;;;;5027853;28;20049;-66
2021/01/08 06:52:04;;;;;;;39.70;15.55;;;1.20;99.90;;;;;;5019928;28;20115;-66
2021/01/08 06:54:30;;;;;;;34.85;15.10;;;1.10;99.90;;;;;;5030059;28;20056;-66
2021/01/08 06:57:00;;;;;;;39.15;15.63;;;1.20;99.90;;;;;;5030162;28;20042;-66
2021/01/08 06:59:32;;;;;;;32.90;14.15;;;1.20;99.90;;;;;;5024140;28;20038;-67
2021/01/08 07:02:16;;;;;;;31.45;13.18;;;1.20;99.90;;;;;;5022627;28;20041;-67
2021/01/08 07:04:44;;;;;;;36.13;13.55;;;1.20;99.90;;;;;;5023085;28;20057;-65
2021/01/08 07:07:21;;;;;;;36.63;14.32;;;1.20;99.90;;;;;;5009898;28;20037;-65
2021/01/08 07:09:49;;;;;;;31.08;12.02;;;1.30;99.90;;;;;;5018285;28;20045;-65
2021/01/08 07:12:21;;;;;;;35.15;13.18;;;1.40;99.90;;;;;;5020810;28;20050;-66
2021/01/08 07:14:48;;;;;;;36.30;13.35;;;1.40;99.90;;;;;;5016345;28;20983;-66
2021/01/08 07:17:15;;;;;;;31.55;12.18;;;1.40;99.90;;;;;;5023250;28;20075;-66
2021/01/08 07:19:44;;;;;;;34.33;13.98;;;1.40;99.90;;;;;;5023129;28;20175;-66
2021/01/08 07:22:19;;;;;;;29.85;11.88;;;1.40;99.90;;;;;;5024007;28;20037;-66
2021/01/08 07:24:50;;;;;;;28.33;11.27;;;1.40;99.90;;;;;;5028745;28;20061;-66
2021/01/08 07:27:19;;;;;;;34.50;13.13;;;1.50;99.90;;;;;;5029311;28;20053;-66
2021/01/08 07:29:51;;;;;;;31.42;13.63;;;1.50;99.90;;;;;;5026380;28;20038;-66
2021/01/08 07:32:39;;;;;;;31.48;12.88;;;1.50;99.90;;;;;;5018671;28;20037;-66
2021/01/08 07:35:25;;;;;;;33.72;14.13;;;1.50;99.90;;;;;;5018207;28;20504;-66
2021/01/08 07:38:00;;;;;;;34.13;14.30;;;1.50;99.90;;;;;;5018825;28;20045;-66
2021/01/08 07:40:58;;;;;;;28.10;13.13;;;1.50;99.90;;;;;;5027497;28;20497;-66
2021/01/08 07:43:36;;;;;;;33.95;13.68;;;1.50;99.90;;;;;;5022519;28;20050;-66
2021/01/08 07:46:07;;;;;;;31.37;11.63;;;1.60;99.90;;;;;;5017746;28;20103;-66
2021/01/08 07:48:40;;;;;;;33.85;13.10;;;1.60;99.90;;;;;;5028131;28;20045;-66
2021/01/08 07:51:13;;;;;;;33.45;13.48;;;1.70;99.90;;;;;;5028599;28;20033;-65
2021/01/08 07:53:43;;;;;;;32.58;14.05;;;1.70;99.90;;;;;;5028854;28;20448;-65
2021/01/08 07:56:13;;;;;;;27.40;12.75;;;1.70;99.90;;;;;;5027222;28;20045;-66
2021/01/08 07:58:44;;;;;;;36.78;15.15;;;1.70;99.90;;;;;;5028772;28;20045;-65
2021/01/08 08:01:12;;;;;;;36.30;15.52;;;1.80;99.90;;;;;;5018263;28;20053;-65
2021/01/08 08:03:40;;;;;;;38.13;13.82;;;1.80;99.90;;;;;;5025360;28;20050;-66
2021/01/08 08:06:08;;;;;;;33.45;13.50;;;1.90;99.90;;;;;;5028334;28;20041;-65
2021/01/08 08:08:41;;;;;;;28.60;14.27;;;1.90;99.90;;;;;;5026036;28;20053;-65
2021/01/08 08:11:22;;;;;;;31.75;12.07;;;2.00;99.90;;;;;;5025447;28;20048;-65
2021/01/08 08:13:49;;;;;;;30.08;13.15;;;2.00;99.90;;;;;;5024574;28;20445;-66
2021/01/08 08:16:15;;;;;;;29.80;13.13;;;2.10;99.90;;;;;;5018218;28;20069;-66
2021/01/08 08:18:49;;;;;;;33.72;13.32;;;2.20;99.90;;;;;;5029937;28;20065;-66
2021/01/08 08:21:20;;;;;;;23.45;11.18;;;2.30;99.90;;;;;;5032637;28;20045;-66
2021/01/08 08:24:04;;;;;;;29.98;11.70;;;2.30;99.90;;;;;;5031498;28;20092;-66
2021/01/08 08:26:35;;;;;;;29.27;12.75;;;2.40;99.90;;;;;;5022623;28;20056;-66
2021/01/08 08:29:07;;;;;;;34.35;13.60;;;2.50;99.90;;;;;;5000044;28;20063;-66
2021/01/08 08:31:39;;;;;;;32.05;13.85;;;2.50;99.90;;;;;;5020254;28;20396;-66
2021/01/08 08:34:10;;;;;;;35.63;13.38;;;2.60;99.90;;;;;;5025181;28;20041;-66
2021/01/08 08:36:37;;;;;;;27.45;12.90;;;2.70;99.90;;;;;;5017540;28;20130;-66
2021/01/08 08:39:05;;;;;;;33.20;13.40;;;2.80;99.90;;;;;;5025251;28;20042;-66
2021/01/08 08:41:33;;;;;;;30.45;12.90;;;2.90;99.90;;;;;;5011258;28;20064;-66
2021/01/08 08:44:13;;;;;;;36.75;14.63;;;3.00;99.90;;;;;;5024690;28;20042;-66
2021/01/08 08:46:50;;;;;;;39.00;14.38;;;3.10;99.90;;;;;;5027111;28;20112;-66
2021/01/08 08:49:18;;;;;;;31.48;13.15;;;3.20;99.90;;;;;;5028915;28;20059;-66
2021/01/08 08:51:52;;;;;;;30.85;13.20;;;3.30;99.90;;;;;;5023990;28;20072;-66
2021/01/08 08:54:20;;;;;;;33.40;14.13;;;3.30;99.90;;;;;;5017049;28;20046;-66
2021/01/08 08:56:48;;;;;;;35.47;13.93;;;3.30;99.90;;;;;;5029149;28;20479;-67
2021/01/08 08:59:15;;;;;;;44.47;17.23;;;3.30;99.90;;;;;;5020017;28;20038;-66
2021/01/08 09:01:43;;;;;;;39.85;16.00;;;3.30;99.90;;;;;;5024673;28;20057;-66
2021/01/08 09:04:10;;;;;;;32.25;13.38;;;3.30;99.90;;;;;;5018974;28;20061;-65
2021/01/08 09:06:41;;;;;;;29.50;13.70;;;3.30;99.90;;;;;;5019544;28;20124;-65
2021/01/08 09:09:18;;;;;;;29.27;12.48;;;3.30;99.90;;;;;;5018741;28;20060;-64
2021/01/08 09:12:09;;;;;;;34.10;13.57;;;3.20;99.90;;;;;;5021262;28;20042;-64
2021/01/08 09:14:38;;;;;;;28.33;11.25;;;3.20;99.90;;;;;;5000005;28;20517;-65
2021/01/08 09:17:13;;;;;;;33.85;15.52;;;3.10;99.90;;;;;;4994959;28;20081;-65
2021/01/08 09:19:39;;;;;;;35.70;14.70;;;3.10;99.90;;;;;;4988008;28;20049;-65
2021/01/08 09:22:09;;;;;;;41.40;16.33;;;3.10;99.90;;;;;;5003945;28;20763;-65
2021/01/08 09:24:38;;;;;;;48.13;16.92;;;3.10;99.90;;;;;;4986677;28;20144;-66
2021/01/08 09:27:10;;;;;;;45.85;17.58;;;3.10;99.90;;;;;;5005588;28;20042;-66
2021/01/08 09:29:37;;;;;;;44.15;17.52;;;3.10;99.90;;;;;;5000597;28;20088;-66
2021/01/08 09:32:10;;;;;;;45.33;18.52;;;3.10;99.90;;;;;;4989058;28;20133;-65
2021/01/08 09:34:37;;;;;;;39.40;16.20;;;3.10;99.90;;;;;;5004025;28;20141;-65
2021/01/08 09:37:17;;;;;;;44.65;18.92;;;3.10;99.90;;;;;;5006629;28;20041;-65
2021/01/08 09:39:43;;;;;;;46.70;15.85;;;3.10;99.90;;;;;;4999934;28;20161;-66
2021/01/08 09:42:13;;;;;;;39.25;14.40;;;3.10;99.90;;;;;;4987395;28;20840;-66
2021/01/08 09:44:41;;;;;;;26.65;11.98;;;3.10;99.90;;;;;;4965273;28;20192;-67
2021/01/08 09:47:15;;;;;;;26.98;11.80;;;3.20;99.90;;;;;;5006441;28;20052;-66
2021/01/08 09:49:48;;;;;;;24.48;10.82;;;3.10;99.90;;;;;;4980784;28;20169;-66
2021/01/08 09:52:15;;;;;;;27.02;11.10;;;3.10;99.90;;;;;;5009277;28;20409;-66
2021/01/08 09:54:55;;;;;;;24.98;10.23;;;3.10;99.90;;;;;;5025738;28;20786;-66
2021/01/08 09:57:33;;;;;;;24.05;10.60;;;3.10;99.90;;;;;;5028294;28;20049;-66
2021/01/08 10:00:11;;;;;;;20.58;8.75;;;3.10;99.90;;;;;;5023771;28;20558;-66
2021/01/08 10:02:56;;;;;;;26.33;10.77;;;3.10;99.90;;;;;;5022678;28;20049;-66
2021/01/08 10:05:25;;;;;;;24.58;10.30;;;3.10;99.90;;;;;;5020304;28;20049;-65
2021/01/08 10:07:52;;;;;;;25.45;11.57;;;3.10;99.90;;;;;;5020974;28;20737;-66
2021/01/08 10:10:28;;;;;;;27.25;12.43;;;3.10;99.90;;;;;;5019377;28;20046;-66
2021/01/08 10:12:56;;;;;;;34.65;12.07;;;3.20;99.90;;;;;;5025750;28;20046;-66
2021/01/08 10:15:43;;;;;;;29.88;11.32;;;3.20;99.90;;;;;;5019919;28;20079;-65
2021/01/08 10:18:35;;;;;;;28.90;10.80;;;3.20;99.90;;;;;;5013664;28;20045;-66
2021/01/08 10:21:06;;;;;;;24.20;10.65;;;3.30;99.90;;;;;;5018184;28;20051;-66
2021/01/08 10:23:41;;;;;;;24.52;10.52;;;3.20;99.90;;;;;;5022172;28;20405;-67
2021/01/08 10:26:15;;;;;;;23.90;11.23;;;3.20;99.90;;;;;;5024495;28;20056;-67
2021/01/08 10:29:04;;;;;;;32.05;10.50;;;3.20;99.90;;;;;;5019294;28;20049;-67
2021/01/08 10:31:30;;;;;;;25.75;11.27;;;3.30;99.90;;;;;;5012906;28;20496;-67
2021/01/08 10:34:01;;;;;;;24.75;10.02;;;3.30;99.90;;;;;;5021515;28;20759;-66
2021/01/08 10:36:27;;;;;;;32.88;12.07;;;3.40;99.90;;;;;;5029999;28;20037;-67
2021/01/08 10:38:54;;;;;;;27.80;11.07;;;3.50;99.90;;;;;;5028330;28;20037;-68
2021/01/08 10:41:20;;;;;;;26.20;10.52;;;3.50;99.90;;;;;;5023903;28;20048;-65
2021/01/08 10:43:47;;;;;;;24.10;10.57;;;3.60;99.90;;;;;;5019710;28;20057;-65
2021/01/08 10:46:13;;;;;;;25.50;10.40;;;3.70;99.90;;;;;;5029271;28;20041;-65
2021/01/08 10:48:42;;;;;;;27.27;11.00;;;3.70;99.90;;;;;;5030375;28;20107;-66
2021/01/08 10:51:08;;;;;;;33.72;12.05;;;3.80;99.90;;;;;;5026006;28;20045;-66
2021/01/08 10:53:35;;;;;;;28.50;11.40;;;3.80;99.90;;;;;;5018477;28;20040;-66
2021/01/08 10:56:03;;;;;;;26.90;9.30;;;3.90;99.90;;;;;;5021709;28;20064;-66
2021/01/08 10:58:30;;;;;;;27.33;10.65;;;4.00;99.90;;;;;;5022874;28;20037;-64
2021/01/08 11:00:58;;;;;;;25.30;10.88;;;4.10;99.90;;;;;;5030157;28;20048;-67
2021/01/08 11:03:24;;;;;;;27.48;11.38;;;4.10;99.90;;;;;;5006434;28;20053;-66
2021/01/08 11:05:51;;;;;;;25.25;9.65;;;4.20;99.90;;;;;;5013386;28;20517;-66
2021/01/08 11:08:17;;;;;;;28.02;10.77;;;4.20;99.90;;;;;;5018371;28;20049;-66
2021/01/08 11:10:44;;;;;;;19.48;9.02;;;4.20;99.90;;;;;;5020614;28;20056;-65
2021/01/08 11:13:10;;;;;;;24.92;10.45;;;4.20;99.90;;;;;;5020224;28;20053;-66
2021/01/08 11:15:37;;;;;;;24.52;9.68;;;4.20;99.90;;;;;;5023076;28;20056;-66
2021/01/08 11:18:05;;;;;;;19.90;8.73;;;4.20;99.90;;;;;;5022436;28;20049;-66
2021/01/08 11:20:31;;;;;;;28.48;9.82;;;4.20;99.90;;;;;;5012809;28;20572;-67
2021/01/08 11:23:03;;;;;;;20.30;9.25;;;4.20;99.90;;;;;;5019128;28;20057;-66
2021/01/08 11:25:29;;;;;;;20.30;9.32;;;4.20;99.90;;;;;;5018894;28;20041;-65
2021/01/08 11:27:56;;;;;;;23.67;9.80;;;4.20;99.90;;;;;;5026475;28;20104;-67
2021/01/08 11:30:22;;;;;;;25.35;10.43;;;4.20;99.90;;;;;;5027371;28;20060;-64
2021/01/08 11:32:49;;;;;;;30.35;11.13;;;4.20;99.90;;;;;;5020640;28;20053;-64
2021/01/08 11:35:16;;;;;;;20.17;7.75;;;4.20;99.90;;;;;;5024557;28;20041;-66
2021/01/08 11:37:43;;;;;;;27.60;11.40;;;4.20;99.90;;;;;;5029956;28;20761;-66
2021/01/08 11:40:10;;;;;;;24.33;11.13;;;4.20;99.90;;;;;;5018314;28;20050;-63
2021/01/08 11:42:36;;;;;;;30.17;12.13;;;4.20;99.90;;;;;;5024018;28;20050;-66
2021/01/08 11:45:04;;;;;;;30.08;10.98;;;4.20;99.90;;;;;;5023153;28;20046;-66
2021/01/08 11:47:34;;;;;;;27.80;11.30;;;4.20;99.90;;;;;;5000518;28;20045;-66
2021/01/08 11:50:04;;;;;;;28.30;11.57;;;4.30;99.90;;;;;;5014985;28;20065;-66
2021/01/08 11:52:30;;;;;;;21.08;9.27;;;4.20;99.90;;;;;;5020052;28;20042;-66
2021/01/08 11:54:57;;;;;;;24.85;10.27;;;4.20;99.90;;;;;;5032654;28;20087;-65
2021/01/08 11:57:23;;;;;;;23.08;8.98;;;4.20;99.90;;;;;;5018690;28;20045;-65
2021/01/08 11:59:53;;;;;;;24.88;9.38;;;4.20;99.90;;;;;;5018489;28;20029;-66
2021/01/08 12:02:19;;;;;;;23.80;10.45;;;4.10;99.90;;;;;;5016323;28;20041;-67
2021/01/08 12:04:48;;;;;;;34.40;12.77;;;4.10;99.90;;;;;;5013238;28;20048;-66
2021/01/08 12:07:14;;;;;;;28.98;11.65;;;4.10;99.90;;;;;;5022423;28;20045;-66
2021/01/08 12:09:41;;;;;;;22.42;9.70;;;4.00;99.90;;;;;;5022527;28;20042;-66
2021/01/08 12:12:08;;;;;;;24.75;10.38;;;4.00;99.90;;;;;;5021694;28;20042;-66
2021/01/08 12:14:35;;;;;;;42.53;14.43;;;4.00;99.90;;;;;;5023825;28;20493;-67
2021/01/08 12:17:06;;;;;;;42.92;15.15;;;4.00;99.90;;;;;;5012813;28;20048;-66
2021/01/08 12:19:34;;;;;;;37.47;13.85;;;4.00;99.90;;;;;;5013932;28;20065;-65
2021/01/08 12:22:02;;;;;;;28.45;11.77;;;4.10;99.90;;;;;;5023187;28;20064;-66
2021/01/08 12:24:28;;;;;;;22.35;9.38;;;4.10;99.90;;;;;;5021300;28;20073;-67
2021/01/08 12:26:55;;;;;;;22.30;8.20;;;4.10;99.90;;;;;;5019207;28;20141;-65
2021/01/08 12:29:23;;;;;;;21.88;9.60;;;4.20;99.90;;;;;;5020708;28;20528;-65
2021/01/08 12:31:50;;;;;;;21.83;8.88;;;4.20;99.90;;;;;;5021877;28;20484;-64
2021/01/08 12:34:18;;;;;;;24.17;9.05;;;4.20;99.90;;;;;;5026969;28;20129;-66
2021/01/08 12:36:44;;;;;;;20.75;9.90;;;4.20;99.90;;;;;;5017523;28;20048;-66
2021/01/08 12:39:12;;;;;;;19.27;8.30;;;4.20;99.90;;;;;;5023930;28;20045;-66
2021/01/08 12:41:38;;;;;;;19.42;7.82;;;4.20;99.90;;;;;;5027951;28;20041;-66
2021/01/08 12:44:05;;;;;;;19.27;7.93;;;4.30;99.90;;;;;;5025783;28;20041;-66
2021/01/08 12:46:32;;;;;;;16.55;6.03;;;4.30;99.90;;;;;;5021419;28;20491;-66